TimeMST,TemperatureF,Dew PointF,Humidity,Sea Level PressureIn,VisibilityMPH,Wind Direction,Wind SpeedMPH,Gust SpeedMPH,PrecipitationIn,Events,Conditions,WindDirDegrees,DateUTC
12:53 AM,-2.9,-8.0,79,30.74,5.0,Calm,Calm,-,N/A,,Haze,0,2013-01-23 07:53:00
1:53 AM,-4.0,-8.0,83,30.74,4.0,Calm,Calm,-,N/A,,Clear,0,2013-01-23 08:53:00
2:53 AM,-2.9,-8.0,79,30.72,5.0,WNW,3.5,-,N/A,,Haze,290,2013-01-23 09:53:00
3:53 AM,-4.0,-9.0,79,30.74,5.0,Calm,Calm,-,N/A,,Haze,0,2013-01-23 10:53:00
4:53 AM,-4.0,-8.0,83,30.74,4.0,Calm,Calm,-,N/A,,Clear,0,2013-01-23 11:53:00
5:53 AM,-4.0,-9.0,79,30.77,5.0,Calm,Calm,-,N/A,,Haze,0,2013-01-23 12:53:00
6:53 AM,-5.1,-9.9,80,30.79,4.0,Calm,Calm,-,N/A,,Haze,0,2013-01-23 13:53:00
7:53 AM,-5.1,-8.0,87,30.80,3.0,Calm,Calm,-,N/A,,Clear,0,2013-01-23 14:53:00
8:53 AM,-0.0,-2.9,88,30.78,3.0,Calm,Calm,-,N/A,,Clear,0,2013-01-23 15:53:00
9:53 AM,3.9,-0.0,84,30.76,3.0,Calm,Calm,-,N/A,,Clear,0,2013-01-23 16:53:00
10:53 AM,1.9,-4.0,76,30.79,4.0,ENE,5.8,-,N/A,,Haze,70,2013-01-23 17:53:00
11:53 AM,5.0,-0.9,76,30.76,4.0,Calm,Calm,-,N/A,,Haze,0,2013-01-23 18:53:00
12:53 PM,7.0,-0.0,73,30.72,4.0,Calm,Calm,-,N/A,,Haze,0,2013-01-23 19:53:00
1:53 PM,10.0,1.9,70,30.68,5.0,ENE,3.5,-,N/A,,Haze,70,2013-01-23 20:53:00
2:53 PM,10.9,1.9,67,30.66,5.0,Calm,Calm,-,N/A,,Haze,0,2013-01-23 21:53:00
3:53 PM,8.1,1.0,73,30.68,5.0,East,3.5,-,N/A,,Haze,100,2013-01-23 22:53:00
4:53 PM,8.1,1.0,73,30.68,4.0,ENE,3.5,-,N/A,,Haze,70,2013-01-23 23:53:00
5:53 PM,5.0,-0.0,80,30.69,6.0,Calm,Calm,-,N/A,,Haze,0,2013-01-24 00:53:00
6:53 PM,5.0,-0.0,80,30.69,6.0,Calm,Calm,-,N/A,,Haze,0,2013-01-24 01:53:00
7:53 PM,5.0,1.0,84,30.68,4.0,Calm,Calm,-,N/A,,Clear,0,2013-01-24 02:53:00
8:53 PM,7.0,1.0,77,30.64,4.0,Calm,Calm,-,N/A,,Haze,0,2013-01-24 03:53:00
9:53 PM,3.9,-0.0,84,30.65,3.0,Calm,Calm,-,N/A,,Clear,0,2013-01-24 04:53:00
10:53 PM,3.9,-0.9,80,30.66,4.0,Calm,Calm,-,N/A,,Haze,0,2013-01-24 05:53:00
11:53 PM,3.0,-0.9,84,30.65,5.0,Calm,Calm,-,N/A,,Clear,0,2013-01-24 06:53:00